createdAt,value
2022-09-18T00:00:14.731Z,0.00
2022-09-18T00:01:14.700Z,0.00
2022-09-18T00:02:14.742Z,0.00
2022-09-18T00:03:14.746Z,0.00
2022-09-18T00:04:14.671Z,0.00
2022-09-18T00:05:14.661Z,0.00
2022-09-18T00:06:14.637Z,0.00
2022-09-18T00:07:14.622Z,0.00
2022-09-18T00:08:14.612Z,0.00
2022-09-18T00:09:14.602Z,0.00
2022-09-18T00:10:14.594Z,0.00
2022-09-18T00:11:14.574Z,0.00
2022-09-18T00:12:15.511Z,0.00
2022-09-18T00:13:14.543Z,0.00
2022-09-18T00:14:14.536Z,0.00
2022-09-18T00:15:14.524Z,0.00
2022-09-18T00:16:14.582Z,0.00
2022-09-18T00:17:14.493Z,0.00
2022-09-18T00:18:14.483Z,0.00
2022-09-18T00:19:14.465Z,0.00
2022-09-18T00:20:14.461Z,0.00
2022-09-18T00:21:14.443Z,0.00
2022-09-18T00:22:14.439Z,0.00
2022-09-18T00:23:14.416Z,0.00
2022-09-18T00:24:14.416Z,0.00
2022-09-18T00:25:14.396Z,0.00
2022-09-18T00:26:14.377Z,0.00
2022-09-18T00:27:14.363Z,0.00
2022-09-18T00:28:14.357Z,0.00
2022-09-18T00:29:14.337Z,0.00
2022-09-18T00:30:14.337Z,0.00
2022-09-18T00:31:14.403Z,0.00
2022-09-18T00:32:14.293Z,0.00
2022-09-18T00:33:14.278Z,0.00
2022-09-18T00:34:14.269Z,0.00
2022-09-18T00:35:14.277Z,0.00
2022-09-18T00:36:14.246Z,0.00
2022-09-18T00:37:14.234Z,0.00
2022-09-18T00:38:14.215Z,0.00
2022-09-18T00:39:14.199Z,0.00
2022-09-18T00:40:14.295Z,0.00
2022-09-18T00:41:14.179Z,0.00
2022-09-18T00:42:14.172Z,0.00
2022-09-18T00:43:14.165Z,0.00
2022-09-18T00:44:14.148Z,0.00
2022-09-18T00:45:14.131Z,0.00
2022-09-18T00:46:14.139Z,0.00
2022-09-18T00:47:14.098Z,0.00
2022-09-18T00:48:14.081Z,0.00
2022-09-18T00:49:14.071Z,0.00
2022-09-18T00:50:14.082Z,0.00
2022-09-18T00:51:14.039Z,0.00
2022-09-18T00:52:14.032Z,0.00
2022-09-18T00:53:14.019Z,0.00
2022-09-18T00:54:14.003Z,0.00
2022-09-18T00:55:13.998Z,0.00
2022-09-18T00:56:13.981Z,0.00
2022-09-18T00:57:13.956Z,0.00
2022-09-18T00:58:13.950Z,0.00
2022-09-18T00:59:13.935Z,0.00
2022-09-18T01:00:13.931Z,0.00
2022-09-18T01:01:14.006Z,0.00
2022-09-18T01:02:13.990Z,0.00
2022-09-18T01:03:13.875Z,0.00
2022-09-18T01:04:13.873Z,0.00
2022-09-18T01:05:13.855Z,0.00
2022-09-18T01:06:13.850Z,0.00
2022-09-18T01:07:13.835Z,0.00
2022-09-18T01:08:14.757Z,0.00
2022-09-18T01:09:25.175Z,0.00
2022-09-18T01:10:14.792Z,0.00
2022-09-18T01:11:13.777Z,0.00
2022-09-18T01:12:13.756Z,0.00
2022-09-18T01:13:13.737Z,0.00
2022-09-18T01:14:13.735Z,0.00
2022-09-18T01:15:13.729Z,0.00
2022-09-18T01:16:13.770Z,0.00
2022-09-18T01:17:13.698Z,0.00
2022-09-18T01:18:13.674Z,0.00
2022-09-18T01:19:13.676Z,0.00
2022-09-18T01:20:13.648Z,0.00
2022-09-18T01:21:13.639Z,0.00
2022-09-18T01:22:13.620Z,0.00
2022-09-18T01:23:14.560Z,0.00
2022-09-18T01:24:13.609Z,0.00
2022-09-18T01:25:13.591Z,0.00
2022-09-18T01:26:13.576Z,0.00
2022-09-18T01:27:13.617Z,0.00
2022-09-18T01:28:13.551Z,0.00
2022-09-18T01:29:13.541Z,0.00
2022-09-18T01:30:13.522Z,0.00
2022-09-18T01:31:13.604Z,0.00
2022-09-18T01:32:34.500Z,0.00
2022-09-18T01:33:13.478Z,0.00
2022-09-18T01:34:13.477Z,0.00
2022-09-18T01:35:36.702Z,0.00
2022-09-18T01:36:14.451Z,0.00
2022-09-18T01:37:13.434Z,0.00
2022-09-18T01:38:14.391Z,0.00
2022-09-18T01:39:13.413Z,0.00
2022-09-18T01:40:13.473Z,0.00
2022-09-18T01:41:13.379Z,0.00
2022-09-18T01:42:13.364Z,0.00
2022-09-18T01:43:13.354Z,0.00
2022-09-18T01:44:13.345Z,0.00
2022-09-18T01:45:13.325Z,0.00
2022-09-18T01:46:13.389Z,0.00
2022-09-18T01:47:13.295Z,0.00
2022-09-18T01:48:13.305Z,0.00
2022-09-18T01:49:13.273Z,0.00
2022-09-18T01:50:13.266Z,0.00
2022-09-18T01:51:13.246Z,0.00
2022-09-18T01:52:13.233Z,0.00
2022-09-18T01:53:13.225Z,0.00
2022-09-18T01:54:13.207Z,0.00
2022-09-18T01:55:13.198Z,0.00
2022-09-18T01:56:13.188Z,0.00
2022-09-18T01:57:13.175Z,0.00
2022-09-18T01:58:13.165Z,0.00
2022-09-18T01:59:13.138Z,0.00
2022-09-18T02:00:13.129Z,0.00
2022-09-18T02:01:13.270Z,0.00
2022-09-18T02:02:13.242Z,0.00
2022-09-18T02:03:13.089Z,0.00
2022-09-18T02:04:13.078Z,0.00
2022-09-18T02:05:13.051Z,0.00
2022-09-18T02:06:13.056Z,0.00
2022-09-18T02:07:13.020Z,0.00
2022-09-18T02:08:13.049Z,0.00
2022-09-18T02:09:12.998Z,0.00
2022-09-18T02:10:13.000Z,0.00
2022-09-18T02:11:12.981Z,0.00
2022-09-18T02:12:12.967Z,0.00
2022-09-18T02:13:12.952Z,0.00
2022-09-18T02:14:12.954Z,0.00
2022-09-18T02:15:12.922Z,0.00
2022-09-18T02:16:13.922Z,0.00
2022-09-18T02:17:12.893Z,0.00
2022-09-18T02:18:12.893Z,0.00
2022-09-18T02:19:12.870Z,0.00
2022-09-18T02:20:12.854Z,0.00
2022-09-18T02:21:12.844Z,0.00
2022-09-18T02:22:12.842Z,0.00
2022-09-18T02:23:12.815Z,0.00
2022-09-18T02:24:12.804Z,0.00
2022-09-18T02:25:12.795Z,0.00
2022-09-18T02:26:12.780Z,0.00
2022-09-18T02:27:12.765Z,0.00
2022-09-18T02:28:12.753Z,0.00
2022-09-18T02:29:12.735Z,0.00
2022-09-18T02:30:12.724Z,0.00
2022-09-18T02:31:12.745Z,0.00
2022-09-18T02:32:12.706Z,0.00
2022-09-18T02:33:12.677Z,0.00
2022-09-18T02:34:12.671Z,0.00
2022-09-18T02:35:12.647Z,0.00
2022-09-18T02:36:12.644Z,0.00
2022-09-18T02:37:12.627Z,0.00
2022-09-18T02:38:12.614Z,0.00
2022-09-18T02:39:12.595Z,0.00
2022-09-18T02:40:12.647Z,0.00
2022-09-18T02:41:12.570Z,0.00
2022-09-18T02:42:12.568Z,0.00
2022-09-18T02:43:12.550Z,0.00
2022-09-18T02:44:12.536Z,0.00
2022-09-18T02:45:12.529Z,0.00
2022-09-18T02:46:12.609Z,0.00
2022-09-18T02:47:12.500Z,0.00
2022-09-18T02:48:12.480Z,0.00
2022-09-18T02:49:12.460Z,0.00
2022-09-18T02:50:12.456Z,0.00
2022-09-18T02:51:12.445Z,0.00
2022-09-18T02:52:12.441Z,0.00
2022-09-18T02:53:12.411Z,0.00
2022-09-18T02:54:12.402Z,0.00
2022-09-18T02:55:12.389Z,0.00
2022-09-18T02:56:12.372Z,0.00
2022-09-18T02:57:12.372Z,0.00
2022-09-18T02:58:12.349Z,0.00
2022-09-18T02:59:12.335Z,0.00
2022-09-18T03:00:12.325Z,0.00
2022-09-18T03:01:12.403Z,0.00
2022-09-18T03:02:12.438Z,0.00
2022-09-18T03:03:12.283Z,0.00
2022-09-18T03:04:12.274Z,0.00
2022-09-18T03:05:13.214Z,0.00
2022-09-18T03:06:12.244Z,0.00
2022-09-18T03:07:12.243Z,0.00
2022-09-18T03:08:12.224Z,0.00
2022-09-18T03:09:12.204Z,0.00
2022-09-18T03:10:12.195Z,0.00
2022-09-18T03:11:12.183Z,0.00
2022-09-18T03:12:12.174Z,0.00
2022-09-18T03:13:12.155Z,0.00
2022-09-18T03:14:12.138Z,0.00
2022-09-18T03:15:12.126Z,0.00
2022-09-18T03:16:12.154Z,0.00
2022-09-18T03:17:12.107Z,0.00
2022-09-18T03:18:12.087Z,0.00
2022-09-18T03:19:12.078Z,0.00
2022-09-18T03:20:12.067Z,0.00
2022-09-18T03:21:12.047Z,0.00
2022-09-18T03:22:12.996Z,0.00
2022-09-18T03:23:12.970Z,0.00
2022-09-18T03:24:12.965Z,0.00
2022-09-18T03:25:11.999Z,0.00
2022-09-18T03:26:11.985Z,0.00
2022-09-18T03:27:11.979Z,0.00
2022-09-18T03:28:11.956Z,0.00
2022-09-18T03:29:11.939Z,0.00
2022-09-18T03:30:11.939Z,0.00
2022-09-18T03:31:11.954Z,0.00
2022-09-18T03:32:11.910Z,0.00
2022-09-18T03:33:11.887Z,0.00
2022-09-18T03:34:11.880Z,0.00
2022-09-18T03:35:11.860Z,0.00
2022-09-18T03:36:11.852Z,0.00
2022-09-18T03:37:11.852Z,0.00
2022-09-18T03:38:11.821Z,0.00
2022-09-18T03:39:11.811Z,0.00
2022-09-18T03:40:11.868Z,0.00
2022-09-18T03:41:11.779Z,0.00
2022-09-18T03:42:11.779Z,0.00
2022-09-18T03:43:11.752Z,0.00
2022-09-18T03:44:11.752Z,0.00
2022-09-18T03:45:11.736Z,0.00
2022-09-18T03:46:11.774Z,0.00
2022-09-18T03:47:11.713Z,0.00
2022-09-18T03:48:11.694Z,0.00
2022-09-18T03:49:11.674Z,0.00
2022-09-18T03:50:11.664Z,0.00
2022-09-18T03:51:11.655Z,0.00
2022-09-18T03:52:11.652Z,0.00
2022-09-18T03:53:11.625Z,0.00
2022-09-18T03:54:11.612Z,0.00
2022-09-18T03:55:11.597Z,0.00
2022-09-18T03:56:11.605Z,0.00
2022-09-18T03:57:11.577Z,0.00
2022-09-18T03:58:11.567Z,0.00
2022-09-18T03:59:11.546Z,0.00
2022-09-18T04:00:11.535Z,0.00
2022-09-18T04:01:11.529Z,0.00
2022-09-18T04:02:11.542Z,0.00
2022-09-18T04:03:11.542Z,0.00
2022-09-18T04:04:11.490Z,0.00
2022-09-18T04:05:11.492Z,0.00
2022-09-18T04:06:11.464Z,0.00
2022-09-18T04:07:11.439Z,0.00
2022-09-18T04:08:11.438Z,0.00
2022-09-18T04:09:11.419Z,0.00
2022-09-18T04:10:11.399Z,0.00
2022-09-18T04:11:11.389Z,0.00
2022-09-18T04:12:11.381Z,0.00
2022-09-18T04:13:11.358Z,0.00
2022-09-18T04:14:11.356Z,0.00
2022-09-18T04:15:11.338Z,0.00
2022-09-18T04:16:11.418Z,0.00
2022-09-18T04:17:11.307Z,0.00
2022-09-18T04:18:11.310Z,0.00
2022-09-18T04:19:11.289Z,2.00
2022-09-18T04:20:11.282Z,2.00
2022-09-18T04:21:12.238Z,0.00
2022-09-18T04:22:11.251Z,0.00
2022-09-18T04:23:11.233Z,0.00
2022-09-18T04:24:11.222Z,0.00
2022-09-18T04:25:11.208Z,2.00
2022-09-18T04:26:11.199Z,1.00
2022-09-18T04:27:11.173Z,1.00
2022-09-18T04:28:11.163Z,7.00
2022-09-18T04:29:11.154Z,7.00
2022-09-18T04:30:11.153Z,11.00
2022-09-18T04:31:11.187Z,8.00
2022-09-18T04:32:11.114Z,4.00
2022-09-18T04:33:11.094Z,21.00
2022-09-18T04:34:11.106Z,17.00
2022-09-18T04:35:11.081Z,20.00
2022-09-18T04:36:11.065Z,21.00
2022-09-18T04:37:11.055Z,32.00
2022-09-18T04:38:11.039Z,37.00
2022-09-18T04:39:11.024Z,48.00
2022-09-18T04:40:11.094Z,51.00
2022-09-18T04:41:11.016Z,62.00
2022-09-18T04:42:10.987Z,56.00
2022-09-18T04:43:10.966Z,54.00
2022-09-18T04:44:10.957Z,63.00
2022-09-18T04:45:10.947Z,79.00
2022-09-18T04:46:11.007Z,96.00
2022-09-18T04:47:10.918Z,115.00
2022-09-18T04:48:10.908Z,138.00
2022-09-18T04:49:10.887Z,162.00
2022-09-18T04:50:10.894Z,179.00
2022-09-18T04:51:10.855Z,203.00
2022-09-18T04:52:10.848Z,198.00
2022-09-18T04:53:10.838Z,218.00
2022-09-18T04:54:10.829Z,229.00
2022-09-18T04:55:10.818Z,251.00
2022-09-18T04:56:10.799Z,266.00
2022-09-18T04:57:10.780Z,288.00
2022-09-18T04:58:10.777Z,301.00
2022-09-18T04:59:10.754Z,351.00
2022-09-18T05:00:10.757Z,385.00
2022-09-18T05:01:10.862Z,421.00
2022-09-18T05:02:10.741Z,481.00
2022-09-18T05:03:10.697Z,540.00
2022-09-18T05:04:10.689Z,557.00
2022-09-18T05:05:10.692Z,581.00
2022-09-18T05:06:10.665Z,592.00
2022-09-18T05:07:10.653Z,580.00
2022-09-18T05:08:10.650Z,579.00
2022-09-18T05:09:10.636Z,549.00
2022-09-18T05:10:10.625Z,535.00
2022-09-18T05:11:10.593Z,521.00
2022-09-18T05:12:10.591Z,533.00
2022-09-18T05:13:10.572Z,552.00
2022-09-18T05:14:10.560Z,592.00
2022-09-18T05:15:10.553Z,639.00
2022-09-18T05:16:10.591Z,626.00
2022-09-18T05:17:10.513Z,582.00
2022-09-18T05:18:11.698Z,512.00
2022-09-18T05:19:11.445Z,463.00
2022-09-18T05:20:10.492Z,431.00
2022-09-18T05:21:10.475Z,425.00
2022-09-18T05:22:10.451Z,488.00
2022-09-18T05:23:10.436Z,512.00
2022-09-18T05:24:11.395Z,517.00
2022-09-18T05:25:10.437Z,562.00
2022-09-18T05:26:10.403Z,585.00
2022-09-18T05:27:10.394Z,586.00
2022-09-18T05:28:10.371Z,585.00
2022-09-18T05:29:10.364Z,617.00
2022-09-18T05:30:10.357Z,609.00
2022-09-18T05:31:10.411Z,613.00
2022-09-18T05:32:10.314Z,625.00
2022-09-18T05:33:10.304Z,637.00
2022-09-18T05:34:10.294Z,660.00
2022-09-18T05:35:10.288Z,745.00
2022-09-18T05:36:10.287Z,754.00
2022-09-18T05:37:10.258Z,738.00
2022-09-18T05:38:10.238Z,692.00
2022-09-18T05:39:14.203Z,625.00
2022-09-18T05:40:11.267Z,610.00
2022-09-18T05:41:10.220Z,721.00
2022-09-18T05:42:11.135Z,868.00
2022-09-18T05:43:10.188Z,923.00
2022-09-18T05:44:10.170Z,911.00
2022-09-18T05:45:10.161Z,928.00
2022-09-18T05:46:10.192Z,1024.00
2022-09-18T05:47:10.128Z,1101.00
2022-09-18T05:48:10.114Z,1148.00
2022-09-18T05:49:10.096Z,1116.00
2022-09-18T05:50:10.089Z,1104.00
2022-09-18T05:51:10.083Z,1104.00
2022-09-18T05:52:10.052Z,1159.00
2022-09-18T05:53:10.042Z,1199.00
2022-09-18T05:54:10.039Z,1209.00
2022-09-18T05:55:10.030Z,1159.00
2022-09-18T05:56:10.005Z,1041.00
2022-09-18T05:57:09.994Z,1005.00
2022-09-18T05:58:09.986Z,1059.00
2022-09-18T05:59:09.975Z,1140.00
2022-09-18T06:00:09.964Z,1224.00
2022-09-18T06:01:09.944Z,1305.00
2022-09-18T06:02:09.987Z,1421.00
2022-09-18T06:03:10.028Z,1482.00
2022-09-18T06:04:09.895Z,1450.00
2022-09-18T06:05:09.906Z,1415.00
2022-09-18T06:06:09.871Z,1382.00
2022-09-18T06:07:09.875Z,1392.00
2022-09-18T06:08:09.856Z,1477.00
2022-09-18T06:09:09.839Z,1567.00
2022-09-18T06:10:09.837Z,1642.00
2022-09-18T06:11:09.828Z,1660.00
2022-09-18T06:12:09.793Z,1604.00
2022-09-18T06:13:09.787Z,1520.00
2022-09-18T06:14:09.767Z,1454.00
2022-09-18T06:15:09.767Z,1443.00
2022-09-18T06:16:09.784Z,1540.00
2022-09-18T06:17:09.736Z,1837.00
2022-09-18T06:18:09.738Z,2063.00
2022-09-18T06:19:09.711Z,2080.00
2022-09-18T06:20:09.696Z,2085.00
2022-09-18T06:21:09.679Z,2103.00
2022-09-18T06:22:09.669Z,2120.00
2022-09-18T06:23:09.650Z,2176.00
2022-09-18T06:24:09.645Z,2167.00
2022-09-18T06:25:09.637Z,2261.00
2022-09-18T06:26:14.576Z,2497.00
2022-09-18T06:27:10.600Z,2655.00
2022-09-18T06:28:09.588Z,2693.00
2022-09-18T06:29:09.579Z,2779.00
2022-09-18T06:30:09.572Z,3066.00
2022-09-18T06:31:09.581Z,3315.00
2022-09-18T06:32:09.532Z,3269.00
2022-09-18T06:33:09.532Z,3355.00
2022-09-18T06:34:09.515Z,3561.00
2022-09-18T06:35:09.502Z,3422.00
2022-09-18T06:36:09.479Z,3360.00
2022-09-18T06:37:09.472Z,3603.00
2022-09-18T06:38:09.453Z,3762.00
2022-09-18T06:39:09.451Z,3781.00
2022-09-18T06:40:09.485Z,3812.00
2022-09-18T06:41:09.455Z,3855.00
2022-09-18T06:42:09.401Z,3751.00
2022-09-18T06:43:10.349Z,3686.00
2022-09-18T06:44:09.375Z,3614.00
2022-09-18T06:45:09.382Z,3817.00
2022-09-18T06:46:09.345Z,3983.00
2022-09-18T06:47:09.342Z,3930.00
2022-09-18T06:48:09.325Z,3699.00
2022-09-18T06:49:09.315Z,3621.00
2022-09-18T06:50:09.306Z,3647.00
2022-09-18T06:51:09.291Z,3576.00
2022-09-18T06:52:09.276Z,3548.00
2022-09-18T06:53:12.645Z,3514.00
2022-09-18T06:54:09.247Z,3625.00
2022-09-18T06:55:09.264Z,3773.00
2022-09-18T06:56:09.217Z,3955.00
2022-09-18T06:57:09.216Z,4121.00
2022-09-18T06:58:09.194Z,4266.00
2022-09-18T06:59:09.188Z,4278.00
2022-09-18T07:00:09.177Z,4245.00
2022-09-18T07:01:09.219Z,4153.00
2022-09-18T07:02:09.206Z,4021.00
2022-09-18T07:03:09.138Z,3743.00
2022-09-18T07:04:09.120Z,3640.00
2022-09-18T07:05:09.108Z,3538.00
2022-09-18T07:06:09.100Z,3571.00
2022-09-18T07:07:09.082Z,3759.00
2022-09-18T07:08:09.059Z,3891.00
2022-09-18T07:09:09.060Z,3915.00
2022-09-18T07:10:09.319Z,3941.00
2022-09-18T07:11:09.026Z,4045.00
2022-09-18T07:12:09.011Z,4127.00
2022-09-18T07:13:08.997Z,4107.00
2022-09-18T07:14:08.991Z,4154.00
2022-09-18T07:15:08.976Z,4281.00
2022-09-18T07:16:09.023Z,4055.00
2022-09-18T07:17:08.954Z,4068.00
2022-09-18T07:18:09.979Z,4117.00
2022-09-18T07:19:08.932Z,4268.00
2022-09-18T07:20:08.903Z,4113.00
2022-09-18T07:21:08.895Z,4230.00
2022-09-18T07:22:09.831Z,4155.00
2022-09-18T07:23:08.865Z,4188.00
2022-09-18T07:24:08.866Z,4273.00
2022-09-18T07:25:08.841Z,4219.00
2022-09-18T07:26:08.835Z,4191.00
2022-09-18T07:27:08.822Z,4133.00
2022-09-18T07:28:08.803Z,4097.00
2022-09-18T07:29:10.253Z,4095.00
2022-09-18T07:30:08.775Z,4273.00
2022-09-18T07:31:08.806Z,4284.00
2022-09-18T07:32:08.746Z,4361.00
2022-09-18T07:33:08.747Z,4179.00
2022-09-18T07:34:08.727Z,4315.00
2022-09-18T07:35:08.707Z,4220.00
2022-09-18T07:36:08.708Z,4415.00
2022-09-18T07:37:08.684Z,4223.00
2022-09-18T07:38:08.668Z,4187.00
2022-09-18T07:39:08.674Z,4277.00
2022-09-18T07:40:08.703Z,4157.00
2022-09-18T07:41:08.636Z,4317.00
2022-09-18T07:42:09.141Z,4213.00
2022-09-18T07:43:08.612Z,4195.00
2022-09-18T07:44:08.600Z,4116.00
2022-09-18T07:45:08.589Z,4139.00
2022-09-18T07:46:08.626Z,4184.00
2022-09-18T07:47:08.557Z,4237.00
2022-09-18T07:48:08.536Z,4199.00
2022-09-18T07:49:08.565Z,4291.00
2022-09-18T07:50:08.510Z,4234.00
2022-09-18T07:51:08.503Z,4193.00
2022-09-18T07:52:08.487Z,4164.00
2022-09-18T07:53:08.492Z,4244.00
2022-09-18T07:54:08.461Z,4180.00
2022-09-18T07:55:08.448Z,3986.00
2022-09-18T07:56:08.433Z,4152.00
2022-09-18T07:57:08.522Z,4239.00
2022-09-18T07:58:08.415Z,4303.00
2022-09-18T07:59:08.413Z,4325.00
2022-09-18T08:00:08.380Z,4302.00
2022-09-18T08:01:08.369Z,5109.00
2022-09-18T08:02:08.431Z,4454.00
2022-09-18T08:03:08.464Z,4414.00
2022-09-18T08:04:09.112Z,4599.00
2022-09-18T08:05:08.332Z,4464.00
2022-09-18T08:06:08.306Z,4921.00
2022-09-18T08:07:08.294Z,4561.00
2022-09-18T08:08:08.296Z,4173.00
2022-09-18T08:09:08.284Z,4507.00
2022-09-18T08:10:08.245Z,4023.00
2022-09-18T08:11:08.247Z,4265.00
2022-09-18T08:12:08.227Z,4814.00
2022-09-18T08:13:08.215Z,4375.00
2022-09-18T08:14:08.272Z,3344.00
2022-09-18T08:15:08.193Z,4974.00
2022-09-18T08:16:08.212Z,5153.00
2022-09-18T08:17:08.165Z,5230.00
2022-09-18T08:18:08.155Z,4532.00
2022-09-18T08:19:08.138Z,3929.00
2022-09-18T08:20:08.129Z,3813.00
2022-09-18T08:21:10.594Z,5430.00
2022-09-18T08:22:08.088Z,3906.00
2022-09-18T08:23:08.094Z,4235.00
2022-09-18T08:24:08.069Z,4133.00
2022-09-18T08:25:08.070Z,4357.00
2022-09-18T08:26:08.048Z,4452.00
2022-09-18T08:27:08.031Z,4806.00
2022-09-18T08:28:08.031Z,3653.00
2022-09-18T08:29:08.011Z,4607.00
2022-09-18T08:30:07.993Z,3958.00
2022-09-18T08:31:08.070Z,5019.00
2022-09-18T08:32:09.997Z,3131.00
2022-09-18T08:33:07.962Z,4835.00
2022-09-18T08:34:07.942Z,3381.00
2022-09-18T08:35:07.927Z,3337.00
2022-09-18T08:36:07.913Z,4430.00
2022-09-18T08:37:07.902Z,3947.00
2022-09-18T08:38:07.893Z,4163.00
2022-09-18T08:39:07.875Z,5096.00
2022-09-18T08:40:07.922Z,4032.00
2022-09-18T08:41:07.844Z,5145.00
2022-09-18T08:42:07.848Z,4467.00
2022-09-18T08:43:07.831Z,6190.00
2022-09-18T08:44:07.804Z,4379.00
2022-09-18T08:45:07.792Z,5202.00
2022-09-18T08:46:07.772Z,4042.00
2022-09-18T08:47:07.776Z,4485.00
2022-09-18T08:48:07.756Z,5420.00
2022-09-18T08:49:07.746Z,5343.00
2022-09-18T08:50:07.728Z,4917.00
2022-09-18T08:51:07.710Z,4403.00
2022-09-18T08:52:07.697Z,4533.00
2022-09-18T08:53:07.699Z,5702.00
2022-09-18T08:54:07.676Z,5242.00
2022-09-18T08:55:07.658Z,4553.00
2022-09-18T08:56:07.645Z,5214.00
2022-09-18T08:57:09.324Z,5537.00
2022-09-18T08:58:07.626Z,5169.00
2022-09-18T08:59:07.610Z,4422.00
2022-09-18T09:00:07.590Z,5576.00
2022-09-18T09:01:07.643Z,5539.00
2022-09-18T09:02:07.627Z,5017.00
2022-09-18T09:03:07.568Z,4900.00
2022-09-18T09:04:07.551Z,5253.00
2022-09-18T09:05:07.533Z,5363.00
2022-09-18T09:06:07.518Z,5695.00
2022-09-18T09:07:07.512Z,6430.00
2022-09-18T09:08:07.494Z,6494.00
2022-09-18T09:09:10.999Z,4027.00
2022-09-18T09:10:08.479Z,4132.00
2022-09-18T09:11:08.409Z,6776.00
2022-09-18T09:12:07.445Z,7351.00
2022-09-18T09:13:07.424Z,6296.00
2022-09-18T09:14:07.414Z,5684.00
2022-09-18T09:15:07.400Z,7571.00
2022-09-18T09:16:07.442Z,5057.00
2022-09-18T09:17:07.393Z,5027.00
2022-09-18T09:18:07.385Z,5717.00
2022-09-18T09:19:07.350Z,6412.00
2022-09-18T09:20:07.336Z,7575.00
2022-09-18T09:21:11.631Z,6193.00
2022-09-18T09:22:07.327Z,4134.00
2022-09-18T09:23:07.298Z,3533.00
2022-09-18T09:24:07.288Z,4470.00
2022-09-18T09:25:07.417Z,5730.00
2022-09-18T09:26:07.258Z,6331.00
2022-09-18T09:27:07.258Z,6555.00
2022-09-18T09:28:07.231Z,6468.00
2022-09-18T09:29:07.234Z,5729.00
2022-09-18T09:30:07.209Z,5057.00
2022-09-18T09:31:07.228Z,4061.00
2022-09-18T09:32:07.189Z,4670.00
2022-09-18T09:33:07.170Z,5269.00
2022-09-18T09:34:07.149Z,3073.00
2022-09-18T09:35:07.151Z,5131.00
2022-09-18T09:36:07.133Z,5453.00
2022-09-18T09:37:07.123Z,3168.00
2022-09-18T09:38:07.101Z,4473.00
2022-09-18T09:39:07.094Z,4602.00
2022-09-18T09:40:07.139Z,5101.00
2022-09-18T09:41:07.062Z,3219.00
2022-09-18T09:42:07.053Z,3127.00
2022-09-18T09:43:07.127Z,2994.00
2022-09-18T09:44:07.022Z,3028.00
2022-09-18T09:45:07.014Z,3288.00
2022-09-18T09:46:07.004Z,3240.00
2022-09-18T09:47:07.060Z,3572.00
2022-09-18T09:48:06.978Z,4072.00
2022-09-18T09:49:06.954Z,4183.00
2022-09-18T09:50:06.945Z,3956.00
2022-09-18T09:51:06.925Z,5197.00
2022-09-18T09:52:09.273Z,4070.00
2022-09-18T09:53:06.906Z,3451.00
2022-09-18T09:54:06.899Z,3215.00
2022-09-18T09:55:06.880Z,3205.00
2022-09-18T09:56:06.872Z,4645.00
2022-09-18T09:57:06.869Z,4845.00
2022-09-18T09:58:06.845Z,5585.00
2022-09-18T09:59:08.704Z,5925.00
2022-09-18T10:00:07.776Z,3638.00
2022-09-18T10:01:06.901Z,3608.00
2022-09-18T10:02:06.859Z,3429.00
2022-09-18T10:03:06.782Z,4618.00
2022-09-18T10:04:06.771Z,6203.00
2022-09-18T10:05:06.750Z,5793.00
2022-09-18T10:06:06.749Z,7002.00
2022-09-18T10:07:06.771Z,8018.00
2022-09-18T10:08:06.717Z,7171.00
2022-09-18T10:09:06.703Z,5141.00
2022-09-18T10:10:06.691Z,6053.00
2022-09-18T10:11:06.689Z,6366.00
2022-09-18T10:12:06.713Z,6280.00
2022-09-18T10:13:06.653Z,5372.00
2022-09-18T10:14:06.641Z,5375.00
2022-09-18T10:15:06.627Z,6469.00
2022-09-18T10:16:06.711Z,4895.00
2022-09-18T10:17:06.593Z,5022.00
2022-09-18T10:18:06.590Z,4777.00
2022-09-18T10:19:06.563Z,4310.00
2022-09-18T10:20:06.554Z,4135.00
2022-09-18T10:21:06.548Z,3370.00
2022-09-18T10:22:06.616Z,3404.00
2022-09-18T10:23:07.317Z,3600.00
2022-09-18T10:24:06.505Z,3892.00
2022-09-18T10:25:06.486Z,4187.00
2022-09-18T10:26:06.492Z,4968.00
2022-09-18T10:27:06.468Z,5316.00
2022-09-18T10:28:06.458Z,5583.00
2022-09-18T10:29:06.437Z,5616.00
2022-09-18T10:30:06.424Z,5073.00
2022-09-18T10:31:07.457Z,4915.00
2022-09-18T10:32:06.465Z,5439.00
2022-09-18T10:33:06.387Z,5492.00
2022-09-18T10:34:06.379Z,6079.00
2022-09-18T10:35:06.357Z,6255.00
2022-09-18T10:36:06.355Z,5463.00
2022-09-18T10:37:06.332Z,6174.00
2022-09-18T10:38:06.319Z,5960.00
2022-09-18T10:39:06.312Z,5640.00
2022-09-18T10:40:06.327Z,5751.00
2022-09-18T10:41:06.281Z,5395.00
2022-09-18T10:42:06.356Z,5432.00
2022-09-18T10:43:06.252Z,6217.00
2022-09-18T10:44:06.238Z,6755.00
2022-09-18T10:45:06.223Z,6989.00
2022-09-18T10:46:07.178Z,7233.00
2022-09-18T10:47:06.225Z,6739.00
2022-09-18T10:48:06.194Z,7108.00
2022-09-18T10:49:06.164Z,7261.00
2022-09-18T10:50:06.188Z,6522.00
2022-09-18T10:51:06.143Z,6590.00
2022-09-18T10:52:06.184Z,7139.00
2022-09-18T10:53:06.115Z,7823.00
2022-09-18T10:54:06.104Z,8782.00
2022-09-18T10:55:06.097Z,8044.00
2022-09-18T10:56:06.078Z,8419.00
2022-09-18T10:57:06.071Z,7746.00
2022-09-18T10:58:06.054Z,7380.00
2022-09-18T10:59:06.095Z,5426.00
2022-09-18T11:00:06.033Z,5852.00
2022-09-18T11:01:06.136Z,7270.00
2022-09-18T11:02:06.091Z,7881.00
2022-09-18T11:03:05.989Z,8185.00
2022-09-18T11:04:05.976Z,8269.00
2022-09-18T11:05:05.961Z,7784.00
2022-09-18T11:06:05.949Z,7586.00
2022-09-18T11:07:05.930Z,7157.00
2022-09-18T11:08:05.919Z,6573.00
2022-09-18T11:09:05.901Z,5377.00
2022-09-18T11:10:05.909Z,4554.00
2022-09-18T11:11:05.882Z,4216.00
2022-09-18T11:12:05.884Z,5043.00
2022-09-18T11:13:05.872Z,6798.00
2022-09-18T11:14:05.844Z,6903.00
2022-09-18T11:15:05.832Z,5931.00
2022-09-18T11:16:05.881Z,5458.00
2022-09-18T11:17:06.743Z,5319.00
2022-09-18T11:18:05.783Z,5369.00
2022-09-18T11:19:07.537Z,5392.00
2022-09-18T11:20:05.774Z,5597.00
2022-09-18T11:21:05.746Z,5904.00
2022-09-18T11:22:05.734Z,5826.00
2022-09-18T11:23:05.714Z,5627.00
2022-09-18T11:24:05.704Z,5588.00
2022-09-18T11:25:05.697Z,6297.00
2022-09-18T11:26:05.696Z,6502.00
2022-09-18T11:27:05.675Z,7042.00
2022-09-18T11:28:05.726Z,7241.00
2022-09-18T11:29:05.636Z,7504.00
2022-09-18T11:30:05.639Z,7405.00
2022-09-18T11:31:05.663Z,7344.00
2022-09-18T11:32:05.706Z,7342.00
2022-09-18T11:33:05.578Z,7223.00
2022-09-18T11:34:06.528Z,7020.00
2022-09-18T11:35:05.569Z,6691.00
2022-09-18T11:36:05.548Z,6866.00
2022-09-18T11:37:06.329Z,6908.00
2022-09-18T11:38:05.519Z,6897.00
2022-09-18T11:39:05.501Z,6954.00
2022-09-18T11:40:05.560Z,6916.00
2022-09-18T11:41:05.472Z,7131.00
2022-09-18T11:42:05.471Z,7155.00
2022-09-18T11:43:05.469Z,6997.00
2022-09-18T11:44:05.437Z,6851.00
2022-09-18T11:45:05.430Z,6552.00
2022-09-18T11:46:05.422Z,6093.00
2022-09-18T11:47:05.477Z,5840.00
2022-09-18T11:48:05.388Z,5863.00
2022-09-18T11:49:05.382Z,6219.00
2022-09-18T11:50:05.408Z,6035.00
2022-09-18T11:51:05.353Z,6258.00
2022-09-18T11:52:05.341Z,5936.00
2022-09-18T11:53:05.324Z,5878.00
2022-09-18T11:54:05.312Z,6017.00
2022-09-18T11:55:05.301Z,6416.00
2022-09-18T11:56:05.288Z,6787.00
2022-09-18T11:57:05.271Z,6372.00
2022-09-18T11:58:05.261Z,6256.00
2022-09-18T11:59:05.245Z,8071.00
2022-09-18T12:00:05.238Z,7420.00
2022-09-18T12:01:05.396Z,6270.00
2022-09-18T12:02:05.266Z,6621.00
2022-09-18T12:03:05.277Z,7356.00
2022-09-18T12:04:05.177Z,7430.00
2022-09-18T12:05:05.168Z,7804.00
2022-09-18T12:06:05.148Z,8013.00
2022-09-18T12:07:05.139Z,8081.00
2022-09-18T12:08:03.766Z,7839.00
2022-09-18T12:09:03.751Z,6874.00
2022-09-18T12:10:03.752Z,6709.00
2022-09-18T12:11:03.721Z,6404.00
2022-09-18T12:12:03.718Z,5855.00
2022-09-18T12:13:03.776Z,6306.00
2022-09-18T12:14:03.689Z,6674.00
2022-09-18T12:15:03.669Z,6186.00
2022-09-18T12:16:03.721Z,8861.00
2022-09-18T12:17:03.642Z,8741.00
2022-09-18T12:18:03.624Z,7348.00
2022-09-18T12:19:03.606Z,6789.00
2022-09-18T12:20:03.606Z,7036.00
2022-09-18T12:21:03.596Z,8418.00
2022-09-18T12:22:03.573Z,8386.00
2022-09-18T12:23:03.558Z,8229.00
2022-09-18T12:24:03.554Z,8650.00
2022-09-18T12:25:03.534Z,8310.00
2022-09-18T12:26:03.514Z,8556.00
2022-09-18T12:27:03.509Z,8164.00
2022-09-18T12:28:03.492Z,8614.00
2022-09-18T12:29:03.472Z,9642.00
2022-09-18T12:30:03.603Z,9232.00
2022-09-18T12:31:03.519Z,9384.00
2022-09-18T12:32:03.431Z,9178.00
2022-09-18T12:33:03.410Z,8931.00